Time;durP1;ratioP1;P1;durP2;ratioP2;P2;SDS_P1;SDS_P2;PMS_P1;PMS_P2;Temp;Humidity;BMP_temperature;BMP_pressure;BME280_temperature;BME280_humidity;BME280_pressure;Samples;Min_cycle;Max_cycle;Signal;HPM_P1;HPM_P2
2022/11/02 00:00:56;;;;;;;;;;;10.80;80.70;;;;;;5067932;28;20295;-81
2022/11/02 00:03:22;;;;;;;;;;;10.70;80.80;;;;;;5056939;28;19955;-80
2022/11/02 00:05:47;;;;;;;;;;;10.70;81.20;;;;;;5054917;28;20366;-81
2022/11/02 00:08:13;;;;;;;;;;;10.80;80.70;;;;;;5056433;28;20242;-81
2022/11/02 00:10:38;;;;;;;;;;;10.70;81.00;;;;;;5060201;28;19908;-80
2022/11/02 00:13:03;;;;;;;;;;;10.60;81.20;;;;;;5056304;28;19914;-80
2022/11/02 00:15:30;;;;;;;;;;;10.60;81.50;;;;;;5061844;28;20421;-82
2022/11/02 00:17:58;;;;;;;;;;;10.60;81.60;;;;;;5059361;28;19912;-80
2022/11/02 00:20:25;;;;;;;;;;;10.70;81.40;;;;;;5060358;28;19921;-80
2022/11/02 00:22:51;;;;;;;;;;;10.60;81.80;;;;;;5055226;28;19916;-80
2022/11/02 00:25:19;;;;;;;;;;;10.60;81.60;;;;;;5062371;28;20392;-81
2022/11/02 00:27:44;;;;;;;;;;;10.60;81.70;;;;;;5058209;28;19917;-82
2022/11/02 00:30:09;;;;;;;;;;;10.60;81.70;;;;;;5059766;28;19923;-80
2022/11/02 00:32:35;;;;;;;;;;;10.60;81.80;;;;;;5058505;28;19923;-81
2022/11/02 00:35:00;;;;;;;;;;;10.60;81.60;;;;;;5060915;28;19978;-81
2022/11/02 00:37:26;;;;;;;;;;;10.60;81.90;;;;;;5064701;28;19920;-83
2022/11/02 00:39:51;;;;;;;;;;;10.60;82.00;;;;;;5061582;28;20273;-81
2022/11/02 00:42:18;;;;;;;;;;;10.60;82.00;;;;;;5064146;28;19921;-81
2022/11/02 00:44:43;;;;;;;;;;;10.50;82.30;;;;;;5072757;28;19915;-80
2022/11/02 00:47:10;;;;;;;;;;;10.50;82.50;;;;;;5065755;28;19917;-80
2022/11/02 00:49:36;;;;;;;;;;;10.60;82.30;;;;;;5062435;28;19908;-81
2022/11/02 00:52:01;;;;;;;;;;;10.60;82.10;;;;;;5053215;28;19904;-82
2022/11/02 00:54:26;;;;;;;;;;;10.60;82.40;;;;;;5064094;28;19916;-81
2022/11/02 00:56:52;;;;;;;;;;;10.50;82.30;;;;;;5058055;28;20358;-82
2022/11/02 00:59:17;;;;;;;;;;;10.50;82.80;;;;;;5056961;28;19916;-80
2022/11/02 01:01:48;;;;;;;;;;;10.50;82.80;;;;;;5055081;28;19909;-80
2022/11/02 01:04:13;;;;;;;;;;;10.40;82.80;;;;;;5061096;28;20276;-81
2022/11/02 01:06:39;;;;;;;;;;;10.50;82.90;;;;;;5053453;28;19912;-79
2022/11/02 01:09:04;;;;;;;;;;;10.40;83.00;;;;;;5052691;28;19913;-80
2022/11/02 01:11:30;;;;;;;;;;;10.40;83.00;;;;;;5061122;28;19912;-80
2022/11/02 01:13:55;;;;;;;;;;;10.40;83.30;;;;;;5054506;28;19904;-80
2022/11/02 01:16:21;;;;;;;;;;;10.30;83.50;;;;;;5051468;28;19913;-80
2022/11/02 01:18:49;;;;;;;;;;;10.30;83.60;;;;;;5055579;28;20281;-80
2022/11/02 01:21:15;;;;;;;;;;;10.40;83.30;;;;;;5066055;28;19991;-80
2022/11/02 01:23:40;;;;;;;;;;;10.30;83.00;;;;;;5067068;28;19973;-80
2022/11/02 01:26:06;;;;;;;;;;;10.30;83.50;;;;;;5053334;28;20003;-81
2022/11/02 01:28:32;;;;;;;;;;;10.30;83.60;;;;;;5069784;28;19916;-80
2022/11/02 01:30:58;;;;;;;;;;;10.30;83.60;;;;;;5056341;28;19979;-80
2022/11/02 01:33:24;;;;;;;;;;;10.30;83.40;;;;;;5059111;28;19963;-80
2022/11/02 01:35:50;;;;;;;;;;;10.40;83.40;;;;;;5058784;28;20257;-80
2022/11/02 01:38:15;;;;;;;;;;;10.30;83.60;;;;;;5069633;28;19946;-79
2022/11/02 01:40:41;;;;;;;;;;;10.30;83.40;;;;;;5064532;28;20376;-80
2022/11/02 01:43:22;;;;;;;;;;;10.30;83.30;;;;;;5059538;28;19966;-81
2022/11/02 01:45:57;;;;;;;;;;;10.40;83.40;;;;;;5064186;28;20010;-80
2022/11/02 01:48:27;;;;;;;;;;;10.40;83.20;;;;;;5067462;28;19908;-80
2022/11/02 01:50:52;;;;;;;;;;;10.40;83.40;;;;;;5046810;28;20348;-79
2022/11/02 01:53:18;;;;;;;;;;;10.50;82.90;;;;;;5061143;28;19958;-81
2022/11/02 01:55:43;;;;;;;;;;;10.50;82.90;;;;;;5039430;28;20344;-81
2022/11/02 01:58:10;;;;;;;;;;;10.60;82.90;;;;;;5062298;28;20020;-82
2022/11/02 02:00:37;;;;;;;;;;;10.70;82.40;;;;;;5062916;28;19905;-80
2022/11/02 02:03:10;;;;;;;;;;;10.80;82.10;;;;;;5060791;28;19913;-80
2022/11/02 02:05:43;;;;;;;;;;;10.80;81.90;;;;;;5053511;28;19958;-80
2022/11/02 02:08:09;;;;;;;;;;;10.80;82.10;;;;;;5064920;28;20379;-80
2022/11/02 02:10:35;;;;;;;;;;;10.80;82.30;;;;;;5054281;28;19915;-81
2022/11/02 02:13:00;;;;;;;;;;;10.80;82.20;;;;;;5056658;28;19995;-81
2022/11/02 02:15:30;;;;;;;;;;;10.90;82.10;;;;;;5052980;28;20024;-81
2022/11/02 02:18:03;;;;;;;;;;;10.90;81.90;;;;;;5057687;28;20007;-80
2022/11/02 02:20:35;;;;;;;;;;;11.00;81.80;;;;;;5054863;28;19931;-80
2022/11/02 02:23:10;;;;;;;;;;;11.00;81.60;;;;;;5064216;28;19908;-80
2022/11/02 02:25:54;;;;;;;;;;;11.00;81.40;;;;;;5069510;28;19912;-81
2022/11/02 02:28:24;;;;;;;;;;;11.10;81.20;;;;;;5057643;28;20262;-82
2022/11/02 02:31:08;;;;;;;;;;;11.10;81.20;;;;;;5064718;28;19935;-81
2022/11/02 02:33:37;;;;;;;;;;;11.10;81.70;;;;;;5055764;28;20304;-80
2022/11/02 02:36:03;;;;;;;;;;;11.10;82.20;;;;;;5063200;28;19908;-79
2022/11/02 02:38:28;;;;;;;;;;;11.10;82.30;;;;;;5066457;28;19962;-80
2022/11/02 02:41:02;;;;;;;;;;;11.10;81.80;;;;;;5064610;28;19918;-81
2022/11/02 02:43:36;;;;;;;;;;;11.10;82.10;;;;;;5068309;28;19955;-81
2022/11/02 02:46:05;;;;;;;;;;;11.10;81.90;;;;;;5063194;28;19919;-81
2022/11/02 02:48:32;;;;;;;;;;;11.10;82.00;;;;;;5048730;28;19908;-81
2022/11/02 02:51:00;;;;;;;;;;;11.20;81.30;;;;;;5063116;28;19919;-80
2022/11/02 02:53:37;;;;;;;;;;;11.20;81.10;;;;;;5056662;28;19920;-80
2022/11/02 02:56:03;;;;;;;;;;;11.20;81.20;;;;;;5061848;28;19966;-81
2022/11/02 02:58:31;;;;;;;;;;;11.30;81.30;;;;;;5064508;28;20408;-80
2022/11/02 03:00:58;;;;;;;;;;;11.30;81.30;;;;;;5061468;28;20390;-80
2022/11/02 03:03:24;;;;;;;;;;;11.30;81.60;;;;;;5055593;28;20019;-81
2022/11/02 03:05:57;;;;;;;;;;;11.30;81.30;;;;;;5056272;28;19909;-80
2022/11/02 03:08:23;;;;;;;;;;;11.30;81.80;;;;;;5056262;28;19935;-80
2022/11/02 03:10:54;;;;;;;;;;;11.30;81.80;;;;;;5067795;28;19908;-82
2022/11/02 03:13:35;;;;;;;;;;;11.30;81.50;;;;;;5054760;28;19912;-81
2022/11/02 03:16:03;;;;;;;;;;;11.30;81.70;;;;;;5056770;28;19923;-79
2022/11/02 03:18:34;;;;;;;;;;;11.30;81.80;;;;;;5057939;28;19920;-82
2022/11/02 03:21:06;;;;;;;;;;;11.30;82.00;;;;;;5060774;28;20431;-81
2022/11/02 03:23:38;;;;;;;;;;;11.30;81.90;;;;;;5058111;28;19912;-79
2022/11/02 03:26:17;;;;;;;;;;;11.30;81.60;;;;;;5065026;28;19908;-80
2022/11/02 03:28:52;;;;;;;;;;;11.30;82.00;;;;;;5071277;28;20344;-80
2022/11/02 03:31:27;;;;;;;;;;;11.40;81.60;;;;;;5060102;28;19913;-80
2022/11/02 03:34:08;;;;;;;;;;;11.40;81.90;;;;;;5054671;28;19963;-81
2022/11/02 03:36:39;;;;;;;;;;;11.40;82.00;;;;;;5064463;28;19916;-79
2022/11/02 03:39:08;;;;;;;;;;;11.30;82.90;;;;;;5057563;28;19912;-81
2022/11/02 03:41:35;;;;;;;;;;;11.10;84.10;;;;;;5061363;28;20370;-80
2022/11/02 03:44:10;;;;;;;;;;;11.10;84.50;;;;;;5065075;28;20314;-81
2022/11/02 03:46:37;;;;;;;;;;;11.00;84.70;;;;;;5060457;28;19916;-80
2022/11/02 03:49:04;;;;;;;;;;;11.00;84.70;;;;;;5061146;28;19915;-82
2022/11/02 03:51:30;;;;;;;;;;;11.00;84.40;;;;;;5075714;28;19908;-80
2022/11/02 03:54:00;;;;;;;;;;;11.00;84.60;;;;;;5082795;28;19908;-80
2022/11/02 03:56:30;;;;;;;;;;;11.00;84.90;;;;;;5078403;28;19916;-80
2022/11/02 03:58:55;;;;;;;;;;;11.00;85.10;;;;;;5057005;28;19916;-80
2022/11/02 04:01:21;;;;;;;;;;;10.90;85.20;;;;;;5053454;28;19908;-81
2022/11/02 04:03:46;;;;;;;;;;;11.00;85.20;;;;;;5068179;28;19912;-81
2022/11/02 04:06:12;;;;;;;;;;;10.90;85.50;;;;;;5071019;28;19931;-81
2022/11/02 04:08:39;;;;;;;;;;;10.80;85.80;;;;;;5058854;28;19966;-82
2022/11/02 04:16:33;;;;;;;;;;;11.00;85.20;;;;;;5061730;28;19935;-81
2022/11/02 04:25:14;;;;;;;;;;;11.00;85.20;;;;;;5056478;28;19916;-81
2022/11/02 04:27:17;;;;;;;;;;;11.00;85.10;;;;;;5029525;28;19915;-82
2022/11/02 04:29:42;;;;;;;;;;;11.00;85.00;;;;;;5067332;28;19996;-82
2022/11/02 04:32:07;;;;;;;;;;;11.00;84.90;;;;;;5048706;28;19966;-81
2022/11/02 04:34:33;;;;;;;;;;;11.10;85.30;;;;;;5057796;28;19967;-81
2022/11/02 04:36:58;;;;;;;;;;;11.10;85.30;;;;;;5058090;28;19986;-81
2022/11/02 04:39:24;;;;;;;;;;;11.10;85.40;;;;;;5058817;28;19912;-81
2022/11/02 04:41:49;;;;;;;;;;;11.10;85.00;;;;;;5061789;28;19909;-81
2022/11/02 04:44:15;;;;;;;;;;;11.10;85.20;;;;;;5071865;28;19913;-82
2022/11/02 04:46:42;;;;;;;;;;;11.20;85.00;;;;;;5054696;28;19915;-82
2022/11/02 04:49:07;;;;;;;;;;;11.10;85.40;;;;;;5064623;28;20272;-82
2022/11/02 04:51:33;;;;;;;;;;;11.10;85.00;;;;;;5061788;28;19919;-81
2022/11/02 04:53:59;;;;;;;;;;;11.20;84.80;;;;;;5055759;28;19916;-82
2022/11/02 04:56:25;;;;;;;;;;;11.10;85.00;;;;;;5062463;28;19917;-81
2022/11/02 04:58:52;;;;;;;;;;;11.10;85.00;;;;;;5060412;28;19915;-80
2022/11/02 05:01:18;;;;;;;;;;;11.20;85.20;;;;;;5062085;28;19912;-82
2022/11/02 05:03:48;;;;;;;;;;;11.20;85.00;;;;;;5056659;28;19944;-81
2022/11/02 05:06:13;;;;;;;;;;;11.30;84.80;;;;;;5055756;28;19954;-81
2022/11/02 05:08:39;;;;;;;;;;;11.40;84.70;;;;;;5059891;28;19999;-82
2022/11/02 05:11:04;;;;;;;;;;;11.30;84.90;;;;;;5055650;28;19913;-81
2022/11/02 05:13:30;;;;;;;;;;;11.30;85.00;;;;;;5058033;28;20331;-81
2022/11/02 05:15:56;;;;;;;;;;;11.40;84.90;;;;;;5066074;28;20260;-81
2022/11/02 05:18:21;;;;;;;;;;;11.40;84.80;;;;;;5059082;28;19974;-81
2022/11/02 05:20:51;;;;;;;;;;;11.50;84.50;;;;;;5054454;28;19909;-81
2022/11/02 05:23:16;;;;;;;;;;;11.50;84.60;;;;;;5059391;28;20360;-82
2022/11/02 05:25:42;;;;;;;;;;;11.50;84.80;;;;;;5053717;28;19919;-81
2022/11/02 05:28:07;;;;;;;;;;;11.60;84.60;;;;;;5073153;28;20443;-81
2022/11/02 05:30:32;;;;;;;;;;;11.50;84.90;;;;;;5070589;28;19912;-70
2022/11/02 05:32:58;;;;;;;;;;;11.50;84.70;;;;;;5050368;28;19924;-71
2022/11/02 05:35:23;;;;;;;;;;;11.40;84.80;;;;;;5032140;28;19909;-70
2022/11/02 05:37:49;;;;;;;;;;;11.40;85.30;;;;;;5043963;28;19916;-74
2022/11/02 05:40:14;;;;;;;;;;;11.40;85.10;;;;;;5052521;28;20356;-73
2022/11/02 05:42:40;;;;;;;;;;;11.50;85.00;;;;;;5053947;28;19908;-70
2022/11/02 05:45:05;;;;;;;;;;;11.50;85.30;;;;;;5058075;28;20035;-70
2022/11/02 05:47:32;;;;;;;;;;;11.50;86.00;;;;;;5061161;28;19920;-71
2022/11/02 05:49:57;;;;;;;;;;;11.30;87.90;;;;;;5057436;28;19908;-70
2022/11/02 05:52:23;;;;;;;;;;;11.30;88.30;;;;;;5034961;28;19942;-70
2022/11/02 05:54:48;;;;;;;;;;;11.10;88.90;;;;;;5054608;28;19916;-70
2022/11/02 05:57:15;;;;;;;;;;;11.00;88.90;;;;;;5063559;28;19928;-70
2022/11/02 05:59:41;;;;;;;;;;;11.00;89.00;;;;;;5075705;28;19912;-71
2022/11/02 06:02:06;;;;;;;;;;;11.00;88.90;;;;;;5059336;28;19908;-73
2022/11/02 06:04:32;;;;;;;;;;;11.00;89.00;;;;;;5059900;28;19909;-73
2022/11/02 06:06:57;;;;;;;;;;;11.00;88.80;;;;;;5070586;28;20279;-70
2022/11/02 06:09:23;;;;;;;;;;;11.00;88.50;;;;;;5062411;28;19909;-71
2022/11/02 06:11:48;;;;;;;;;;;11.00;88.30;;;;;;5055901;28;19916;-71
2022/11/02 06:14:13;;;;;;;;;;;10.90;88.20;;;;;;5057771;28;19923;-71
2022/11/02 06:16:39;;;;;;;;;;;10.80;88.20;;;;;;5066636;28;20595;-70
2022/11/02 06:19:04;;;;;;;;;;;10.70;88.60;;;;;;5068741;28;19965;-72
2022/11/02 06:21:30;;;;;;;;;;;10.60;88.60;;;;;;5058363;28;19916;-72
2022/11/02 06:23:57;;;;;;;;;;;10.50;89.10;;;;;;5059430;28;20375;-70
2022/11/02 06:26:23;;;;;;;;;;;10.50;89.20;;;;;;5060122;28;19916;-71
2022/11/02 06:28:48;;;;;;;;;;;10.60;88.90;;;;;;5059176;28;19991;-70
2022/11/02 06:31:16;;;;;;;;;;;10.60;88.60;;;;;;5058170;28;19916;-71
2022/11/02 06:33:42;;;;;;;;;;;10.40;89.00;;;;;;5058047;28;19927;-75
2022/11/02 06:36:08;;;;;;;;;;;10.40;89.10;;;;;;5060199;28;20326;-75
2022/11/02 06:38:33;;;;;;;;;;;10.40;88.90;;;;;;5057634;28;19931;-70
2022/11/02 06:41:02;;;;;;;;;;;10.30;89.10;;;;;;5064650;28;20485;-70
2022/11/02 06:43:27;;;;;;;;;;;10.30;89.20;;;;;;5055018;28;19916;-71
2022/11/02 06:45:54;;;;;;;;;;;10.30;89.00;;;;;;5058874;28;19917;-71
2022/11/02 06:48:20;;;;;;;;;;;10.30;89.20;;;;;;5057636;28;19915;-70
2022/11/02 06:50:45;;;;;;;;;;;10.20;89.50;;;;;;5063982;28;19908;-73
2022/11/02 06:53:10;;;;;;;;;;;10.20;89.50;;;;;;5062778;28;19913;-70
2022/11/02 06:55:36;;;;;;;;;;;10.10;89.80;;;;;;5062909;28;19931;-70
2022/11/02 06:58:01;;;;;;;;;;;10.20;89.60;;;;;;5054730;28;20288;-71
2022/11/02 07:00:28;;;;;;;;;;;10.10;89.70;;;;;;5057159;28;19978;-69
2022/11/02 07:03:00;;;;;;;;;;;10.20;89.60;;;;;;5057118;28;19944;-70
2022/11/02 07:05:26;;;;;;;;;;;10.30;89.60;;;;;;5058795;28;19985;-71
2022/11/02 07:07:51;;;;;;;;;;;10.50;89.30;;;;;;5053112;28;20007;-70
2022/11/02 07:10:17;;;;;;;;;;;10.60;88.60;;;;;;5064386;28;20321;-70
2022/11/02 07:12:42;;;;;;;;;;;10.70;88.20;;;;;;5054112;28;19991;-70
2022/11/02 07:15:08;;;;;;;;;;;10.80;87.90;;;;;;5052842;28;19913;-70
2022/11/02 07:17:37;;;;;;;;;;;10.80;87.70;;;;;;5055631;28;19928;-70
2022/11/02 07:20:04;;;;;;;;;;;10.80;87.60;;;;;;5056194;28;19943;-72
2022/11/02 07:22:30;;;;;;;;;;;10.70;87.60;;;;;;5061527;28;19912;-70
2022/11/02 07:24:55;;;;;;;;;;;10.80;87.90;;;;;;5056501;28;19909;-71
2022/11/02 07:27:21;;;;;;;;;;;10.90;87.60;;;;;;5055943;28;20379;-74
2022/11/02 07:29:46;;;;;;;;;;;11.00;87.10;;;;;;5054853;28;19923;-69
2022/11/02 07:32:12;;;;;;;;;;;11.00;86.90;;;;;;5057045;28;19912;-70
2022/11/02 07:34:37;;;;;;;;;;;11.10;87.00;;;;;;5051980;28;19917;-71
2022/11/02 07:37:03;;;;;;;;;;;11.00;86.80;;;;;;5055355;28;20344;-70
2022/11/02 07:39:28;;;;;;;;;;;11.00;86.90;;;;;;5057791;28;19909;-71
2022/11/02 07:41:54;;;;;;;;;;;11.00;87.30;;;;;;5055893;28;19916;-70
2022/11/02 07:44:19;;;;;;;;;;;11.10;87.10;;;;;;5052709;28;19905;-71
2022/11/02 07:46:45;;;;;;;;;;;11.10;87.10;;;;;;5051904;28;19913;-69
2022/11/02 07:49:11;;;;;;;;;;;11.20;86.60;;;;;;5062079;28;20440;-71
2022/11/02 07:51:36;;;;;;;;;;;11.30;86.10;;;;;;5054587;28;19915;-71
2022/11/02 07:54:02;;;;;;;;;;;11.30;86.30;;;;;;5054872;28;20416;-69
2022/11/02 07:56:27;;;;;;;;;;;11.40;85.90;;;;;;5057073;28;19913;-69
2022/11/02 07:58:53;;;;;;;;;;;11.60;85.50;;;;;;5067148;28;19956;-69
2022/11/02 08:01:18;;;;;;;;;;;11.80;85.20;;;;;;5055124;28;19912;-70
2022/11/02 08:03:43;;;;;;;;;;;11.80;84.70;;;;;;5065129;28;19915;-71
2022/11/02 08:06:09;;;;;;;;;;;11.80;84.60;;;;;;5051659;28;19916;-70
2022/11/02 08:08:35;;;;;;;;;;;11.90;84.30;;;;;;5054925;28;19908;-70
2022/11/02 08:11:05;;;;;;;;;;;12.00;83.90;;;;;;5055992;28;19905;-69
2022/11/02 08:13:30;;;;;;;;;;;12.00;83.60;;;;;;5051887;28;19962;-70
2022/11/02 08:15:55;;;;;;;;;;;12.10;83.60;;;;;;5054914;28;19904;-69
2022/11/02 08:18:22;;;;;;;;;;;12.10;83.20;;;;;;5048807;28;19923;-70
2022/11/02 08:20:48;;;;;;;;;;;12.10;83.40;;;;;;5054341;28;19913;-69
2022/11/02 08:23:14;;;;;;;;;;;12.10;82.60;;;;;;5054856;28;19909;-71
2022/11/02 08:25:40;;;;;;;;;;;12.10;82.60;;;;;;5055313;28;19904;-69
2022/11/02 08:28:07;;;;;;;;;;;12.10;83.00;;;;;;5060851;28;19953;-70
2022/11/02 08:30:32;;;;;;;;;;;12.20;82.80;;;;;;5053581;28;20360;-70
2022/11/02 08:33:02;;;;;;;;;;;12.20;82.70;;;;;;5056833;28;19962;-71
2022/11/02 08:35:28;;;;;;;;;;;12.30;82.20;;;;;;5054983;28;19913;-69
2022/11/02 08:37:54;;;;;;;;;;;12.30;82.10;;;;;;5068275;28;19916;-69
2022/11/02 08:40:19;;;;;;;;;;;12.40;81.90;;;;;;5051605;28;19905;-70
2022/11/02 08:42:45;;;;;;;;;;;12.40;81.60;;;;;;5051472;28;19956;-69
2022/11/02 08:45:10;;;;;;;;;;;12.50;81.60;;;;;;5053917;28;19916;-69
2022/11/02 08:47:40;;;;;;;;;;;12.60;81.10;;;;;;5053743;28;20376;-69
2022/11/02 08:50:06;;;;;;;;;;;12.60;80.50;;;;;;5053014;28;19908;-69
2022/11/02 08:52:35;;;;;;;;;;;12.60;80.80;;;;;;5057067;28;19913;-69
2022/11/02 08:55:00;;;;;;;;;;;12.60;80.90;;;;;;5065883;28;19915;-70
2022/11/02 08:57:26;;;;;;;;;;;12.60;81.10;;;;;;5058488;28;19912;-69
2022/11/02 08:59:51;;;;;;;;;;;12.60;80.50;;;;;;5062006;28;19919;-70
2022/11/02 09:02:17;;;;;;;;;;;12.60;80.40;;;;;;5050967;28;19905;-69
2022/11/02 09:04:42;;;;;;;;;;;12.70;80.60;;;;;;5061756;28;20042;-69
2022/11/02 09:07:11;;;;;;;;;;;12.70;80.40;;;;;;5052723;28;20349;-71
2022/11/02 09:09:36;;;;;;;;;;;12.70;79.80;;;;;;5060951;28;19908;-69
2022/11/02 09:12:01;;;;;;;;;;;12.60;79.80;;;;;;5058740;28;20003;-70
2022/11/02 09:14:27;;;;;;;;;;;12.60;80.30;;;;;;5056040;28;19955;-70
2022/11/02 09:16:52;;;;;;;;;;;12.60;80.60;;;;;;5068161;28;19923;-69
2022/11/02 09:19:18;;;;;;;;;;;12.60;80.10;;;;;;5059067;28;20265;-69
2022/11/02 09:21:43;;;;;;;;;;;12.60;80.90;;;;;;5061947;28;19908;-69
2022/11/02 09:24:09;;;;;;;;;;;12.60;81.00;;;;;;5066016;28;19912;-70
2022/11/02 09:26:34;;;;;;;;;;;12.60;79.90;;;;;;5051996;28;19913;-69
2022/11/02 09:29:00;;;;;;;;;;;12.70;79.60;;;;;;5056502;28;19915;-69
2022/11/02 09:31:27;;;;;;;;;;;12.80;79.50;;;;;;5062424;28;20003;-71
2022/11/02 09:33:52;;;;;;;;;;;12.90;78.70;;;;;;5073127;28;19962;-70
2022/11/02 09:36:18;;;;;;;;;;;13.00;78.40;;;;;;5041282;28;19920;-69
2022/11/02 09:38:43;;;;;;;;;;;13.00;78.80;;;;;;5051897;28;19928;-70
2022/11/02 09:41:16;;;;;;;;;;;12.90;78.70;;;;;;5051345;28;19955;-72
2022/11/02 09:43:57;;;;;;;;;;;12.90;78.90;;;;;;5043013;28;19920;-73
2022/11/02 09:46:24;;;;;;;;;;;12.80;78.90;;;;;;5056506;28;19909;-70
2022/11/02 09:48:56;;;;;;;;;;;12.80;79.00;;;;;;5039179;28;20353;-71
2022/11/02 09:51:23;;;;;;;;;;;12.80;79.20;;;;;;5041941;28;20445;-70
2022/11/02 09:53:53;;;;;;;;;;;12.70;79.60;;;;;;5041871;28;19921;-70
2022/11/02 09:56:19;;;;;;;;;;;12.70;78.60;;;;;;5052268;28;19958;-70
2022/11/02 09:58:46;;;;;;;;;;;12.70;78.80;;;;;;5055665;28;19921;-74
2022/11/02 10:01:23;;;;;;;;;;;12.70;78.80;;;;;;5055785;28;19964;-70
2022/11/02 10:04:05;;;;;;;;;;;12.70;79.00;;;;;;5036163;28;19905;-73
2022/11/02 10:06:34;;;;;;;;;;;12.70;79.00;;;;;;5045503;28;19999;-72
2022/11/02 10:09:08;;;;;;;;;;;12.50;80.60;;;;;;5046508;28;20410;-70
2022/11/02 10:11:51;;;;;;;;;;;12.50;80.50;;;;;;5046351;28;19999;-70
2022/11/02 10:14:22;;;;;;;;;;;12.50;81.40;;;;;;5046076;28;20058;-71
2022/11/02 10:16:52;;;;;;;;;;;12.40;81.00;;;;;;5063313;28;19924;-70
2022/11/02 10:19:18;;;;;;;;;;;12.30;83.10;;;;;;5049026;28;19908;-69
2022/11/02 10:21:45;;;;;;;;;;;11.90;86.00;;;;;;5042104;28;19909;-70
2022/11/02 10:24:22;;;;;;;;;;;11.60;87.70;;;;;;5058952;28;19940;-70
2022/11/02 10:26:47;;;;;;;;;;;11.50;88.40;;;;;;5045228;28;19908;-70
2022/11/02 10:29:18;;;;;;;;;;;11.50;88.70;;;;;;5047071;28;19916;-73
2022/11/02 10:31:44;;;;;;;;;;;11.50;88.50;;;;;;5069508;28;19908;-69
2022/11/02 10:34:18;;;;;;;;;;;11.50;87.60;;;;;;5057076;28;19920;-70
2022/11/02 10:36:54;;;;;;;;;;;11.40;88.50;;;;;;5066290;28;19954;-70
2022/11/02 10:39:39;;;;;;;;;;;11.30;88.60;;;;;;5060524;28;19958;-73
2022/11/02 10:42:10;;;;;;;;;;;11.20;89.00;;;;;;5060092;28;20137;-70
2022/11/02 10:44:56;;;;;;;;;;;11.10;89.20;;;;;;5067967;28;19908;-69
2022/11/02 10:47:23;;;;;;;;;;;11.00;89.60;;;;;;5046821;28;20013;-72
2022/11/02 10:49:56;;;;;;;;;;;10.90;90.20;;;;;;5060837;28;20349;-70
2022/11/02 10:52:22;;;;;;;;;;;10.90;89.90;;;;;;5058033;28;19952;-71
2022/11/02 10:54:52;;;;;;;;;;;11.00;89.60;;;;;;5053751;28;20461;-69
2022/11/02 10:57:21;;;;;;;;;;;11.30;88.40;;;;;;5062821;28;19916;-72
2022/11/02 11:00:15;;;;;;;;;;;11.50;88.70;;;;;;5057866;28;19944;-69
2022/11/02 11:02:41;;;;;;;;;;;11.80;88.00;;;;;;5058856;28;19990;-70
2022/11/02 11:05:13;;;;;;;;;;;12.20;86.20;;;;;;5057289;28;20001;-70
2022/11/02 11:07:42;;;;;;;;;;;12.60;85.30;;;;;;5053151;28;19916;-69
2022/11/02 11:10:13;;;;;;;;;;;12.80;83.60;;;;;;5060387;28;19917;-70
2022/11/02 11:12:41;;;;;;;;;;;13.00;83.30;;;;;;5057292;28;20341;-72
2022/11/02 11:15:28;;;;;;;;;;;13.00;83.20;;;;;;5059842;28;20353;-68
2022/11/02 11:17:53;;;;;;;;;;;13.00;82.70;;;;;;5054936;28;20049;-69
2022/11/02 11:20:31;;;;;;;;;;;12.90;82.90;;;;;;5051850;28;19909;-69
2022/11/02 11:23:18;;;;;;;;;;;13.00;83.30;;;;;;5053373;28;20276;-69
2022/11/02 11:25:54;;;;;;;;;;;13.20;82.50;;;;;;5055752;28;19908;-70
2022/11/02 11:28:36;;;;;;;;;;;13.00;81.20;;;;;;5052375;28;19917;-71
2022/11/02 11:31:04;;;;;;;;;;;12.80;81.30;;;;;;5063383;28;20003;-72
2022/11/02 11:33:31;;;;;;;;;;;12.80;80.90;;;;;;5060997;28;20566;-69
2022/11/02 11:35:57;;;;;;;;;;;12.70;81.20;;;;;;5038181;28;20019;-71
2022/11/02 11:38:26;;;;;;;;;;;12.70;81.40;;;;;;5059510;28;20297;-70
2022/11/02 11:40:58;;;;;;;;;;;12.60;81.60;;;;;;5037049;28;19912;-70
2022/11/02 11:43:25;;;;;;;;;;;12.60;81.60;;;;;;5042700;28;20245;-71
2022/11/02 11:45:54;;;;;;;;;;;12.80;80.10;;;;;;5049588;28;20011;-70
2022/11/02 11:48:39;;;;;;;;;;;12.80;79.40;;;;;;5034812;28;19913;-68
2022/11/02 11:51:20;;;;;;;;;;;13.10;79.30;;;;;;5040898;28;20476;-70
2022/11/02 11:54:04;;;;;;;;;;;13.70;77.40;;;;;;5038777;28;20274;-70
2022/11/02 11:56:30;;;;;;;;;;;13.80;76.90;;;;;;5037001;28;19953;-68
2022/11/02 11:58:57;;;;;;;;;;;13.50;77.20;;;;;;5040429;28;19916;-68
2022/11/02 12:01:23;;;;;;;;;;;13.30;77.00;;;;;;5035834;28;19915;-69
2022/11/02 12:03:51;;;;;;;;;;;13.30;76.40;;;;;;5041575;28;19913;-72
2022/11/02 12:06:33;;;;;;;;;;;13.20;77.10;;;;;;5048591;28;20350;-70
2022/11/02 12:09:02;;;;;;;;;;;13.10;77.00;;;;;;5045184;28;19908;-68
2022/11/02 12:11:27;;;;;;;;;;;13.40;75.90;;;;;;5044134;28;20342;-69
2022/11/02 12:14:08;;;;;;;;;;;13.30;75.00;;;;;;5036811;28;19923;-68
2022/11/02 12:16:52;;;;;;;;;;;13.50;73.70;;;;;;5035139;28;20594;-68
2022/11/02 12:19:27;;;;;;;;;;;13.50;74.80;;;;;;5034972;28;19908;-68
2022/11/02 12:22:02;;;;;;;;;;;13.50;74.20;;;;;;5037705;28;19912;-69
2022/11/02 12:24:37;;;;;;;;;;;13.30;74.60;;;;;;5051587;28;19904;-68
2022/11/02 12:27:21;;;;;;;;;;;13.20;74.30;;;;;;5071018;28;19911;-69
2022/11/02 12:30:08;;;;;;;;;;;12.80;77.70;;;;;;5065908;28;20426;-68
2022/11/02 12:32:43;;;;;;;;;;;12.60;80.20;;;;;;5064897;28;20253;-70
2022/11/02 12:35:22;;;;;;;;;;;12.80;80.20;;;;;;5047615;28;19916;-67
2022/11/02 12:38:14;;;;;;;;;;;13.00;78.40;;;;;;5051758;28;19916;-68
2022/11/02 12:40:59;;;;;;;;;;;12.90;79.50;;;;;;5038325;28;19905;-70
2022/11/02 12:43:28;;;;;;;;;;;13.60;76.20;;;;;;5034302;28;19908;-68
2022/11/02 12:46:07;;;;;;;;;;;14.00;72.20;;;;;;5052509;28;19918;-68
2022/11/02 12:48:51;;;;;;;;;;;14.20;71.10;;;;;;5041678;28;20086;-69
2022/11/02 12:51:20;;;;;;;;;;;14.00;73.30;;;;;;5041604;28;19919;-69
2022/11/02 12:53:52;;;;;;;;;;;14.00;72.90;;;;;;5038424;28;20325;-68
2022/11/02 12:56:21;;;;;;;;;;;14.30;71.40;;;;;;5055945;28;19950;-68
2022/11/02 12:58:46;;;;;;;;;;;14.00;72.10;;;;;;5053988;28;19917;-68
2022/11/02 13:01:18;;;;;;;;;;;14.10;72.30;;;;;;5033989;28;20023;-70
2022/11/02 13:03:53;;;;;;;;;;;13.80;72.50;;;;;;5059061;28;20039;-68
2022/11/02 13:06:22;;;;;;;;;;;14.00;71.00;;;;;;5039419;28;19908;-67
2022/11/02 13:08:57;;;;;;;;;;;13.60;70.70;;;;;;5040412;28;19913;-68
2022/11/02 13:11:54;;;;;;;;;;;13.60;71.30;;;;;;5051307;28;19968;-68
2022/11/02 13:14:21;;;;;;;;;;;13.60;71.60;;;;;;5011717;28;19912;-68
2022/11/02 13:16:47;;;;;;;;;;;13.40;71.00;;;;;;5041967;28;19916;-69
2022/11/02 13:19:31;;;;;;;;;;;13.20;70.70;;;;;;5032168;28;19909;-69
2022/11/02 13:21:57;;;;;;;;;;;13.10;69.10;;;;;;5039677;28;19962;-68
2022/11/02 13:24:26;;;;;;;;;;;13.50;67.10;;;;;;5037318;28;19908;-69
2022/11/02 13:26:51;;;;;;;;;;;13.40;68.10;;;;;;5037090;28;19908;-67
2022/11/02 13:29:20;;;;;;;;;;;13.50;66.80;;;;;;5034520;28;19908;-70
2022/11/02 13:31:47;;;;;;;;;;;13.60;67.20;;;;;;5042283;28;19908;-69
2022/11/02 13:34:15;;;;;;;;;;;14.10;66.10;;;;;;5066173;28;20392;-68
2022/11/02 13:36:41;;;;;;;;;;;14.30;65.40;;;;;;5066237;28;19912;-68
2022/11/02 13:39:15;;;;;;;;;;;14.50;64.40;;;;;;5037809;28;19911;-69
2022/11/02 13:41:43;;;;;;;;;;;14.70;63.90;;;;;;5034330;28;19975;-68
2022/11/02 13:44:22;;;;;;;;;;;14.60;64.80;;;;;;5034062;28;19905;-69
2022/11/02 13:47:06;;;;;;;;;;;14.40;65.50;;;;;;5054474;28;19935;-69
2022/11/02 13:49:39;;;;;;;;;;;14.30;65.60;;;;;;5041582;28;19923;-69
2022/11/02 13:52:24;;;;;;;;;;;14.30;65.30;;;;;;5051708;28;19917;-68
2022/11/02 13:54:52;;;;;;;;;;;14.00;65.90;;;;;;5026839;28;20294;-69
2022/11/02 13:57:31;;;;;;;;;;;14.00;66.10;;;;;;5039728;28;19955;-69
2022/11/02 13:59:57;;;;;;;;;;;14.10;66.30;;;;;;5049138;28;20379;-68
2022/11/02 14:02:23;;;;;;;;;;;13.70;66.70;;;;;;5057274;28;19909;-67
2022/11/02 14:04:49;;;;;;;;;;;14.10;65.90;;;;;;5052320;28;19904;-68
2022/11/02 14:07:23;;;;;;;;;;;13.90;66.50;;;;;;5041314;28;20267;-67
2022/11/02 14:09:49;;;;;;;;;;;14.00;65.10;;;;;;5035510;28;19912;-70
2022/11/02 14:12:20;;;;;;;;;;;13.90;66.20;;;;;;5049205;28;19913;-68
2022/11/02 14:15:21;;;;;;;;;;;13.70;67.00;;;;;;5044506;28;19908;-68
2022/11/02 14:17:52;;;;;;;;;;;13.50;68.30;;;;;;4975489;28;19922;-68
2022/11/02 14:20:33;;;;;;;;;;;13.10;69.90;;;;;;5021837;28;19911;-69
2022/11/02 14:23:08;;;;;;;;;;;13.00;70.70;;;;;;5042160;28;19913;-67
2022/11/02 14:25:46;;;;;;;;;;;13.00;70.70;;;;;;5036671;28;19991;-67
2022/11/02 14:28:29;;;;;;;;;;;12.80;70.90;;;;;;5053946;28;19982;-69
2022/11/02 14:30:58;;;;;;;;;;;12.70;70.70;;;;;;5050078;28;19912;-68
2022/11/02 14:33:30;;;;;;;;;;;12.70;70.90;;;;;;5055863;28;20345;-68
2022/11/02 14:36:02;;;;;;;;;;;12.80;70.60;;;;;;5050692;28;19909;-67
2022/11/02 14:38:36;;;;;;;;;;;12.80;70.90;;;;;;5037107;28;20257;-67